Flight Track Log - Related Links

Times and Time Zones

All times are in EDT time to prevent confusion due to time zone crossing. See the SWA3228 flight status page for this flight to view local times or setup timezone preferences in your user account.

Time Position Orientation Groundspeed Altitude Reporting Facility
EDT Latitude Longitude Course Direction KTS MPH feet Rate Location/Type
Thu 10:27:37 AM 33.5706 -86.7439 49° Northeast 140 161 1,700  Level Atlanta Center
Thu 10:28:32 AM 33.5983 -86.7050 49° Northeast 190 219 3,300 2,000 Climbing Atlanta Center
Thu 10:29:37 AM 33.6639 -86.6744 21° North 296 341 5,700 2,976 Climbing Atlanta Center
Thu 10:30:37 AM 33.7394 -86.6517 14° North 278 320 9,500 3,550 Climbing Atlanta Center
Thu 10:31:37 AM 33.8214 -86.6242 16° North 278 320 12,800 2,940 Climbing Atlanta Center
Thu 10:33:08 AM 33.9650 -86.5806 14° North 324 373 16,900 2,625 Climbing Memphis Center
Thu 10:34:01 AM 34.0506 -86.5483 17° North 350 403 19,100 2,442 Climbing Atlanta Center
Thu 10:35:01 AM 34.1578 -86.5064 18° North 370 426 21,500 1,950 Climbing Atlanta Center
Thu 10:36:01 AM 34.2650 -86.4669 17° North 387 445 23,000 750 Climbing Atlanta Center
Thu 10:37:01 AM 34.3764 -86.4297 15° North 401 461 23,000 50 Level Atlanta Center
Thu 10:38:01 AM 34.4856 -86.3875 18° North 401 461 23,100 1,250 Climbing Atlanta Center
Thu 10:39:01 AM 34.6131 -86.3783 North 416 479 25,500 2,200 Climbing Atlanta Center
Thu 10:40:01 AM 34.7297 -86.3994 352° North 416 479 27,500 1,900 Climbing Atlanta Center
Thu 10:41:01 AM 34.8500 -86.4256 350° North 423 487 29,300 1,800 Climbing Atlanta Center
Thu 10:42:01 AM 34.9747 -86.4494 351° North 434 499 31,100 1,780 Climbing Atlanta Center
Thu 10:42:32 AM 35.0253 -86.4597 351° North 451 519 32,000 2,110 Climbing Memphis Center
Thu 10:43:32 AM 35.1556 -86.4892 350° North 451 519 34,300 2,000 Climbing Memphis Center
Thu 10:44:32 AM 35.2731 -86.5142 350° North 440 506 36,000 850 Climbing Memphis Center
Thu 10:45:32 AM 35.3928 -86.5367 351° North 426 490 36,000  Level Memphis Center
Thu 10:46:32 AM 35.5117 -86.5389 359° North 431 496 36,000  Level Memphis Center
Thu 10:47:32 AM 35.6169 -86.5033 15° North 424 488 36,000  Level Memphis Center
Thu 10:48:32 AM 35.7367 -86.4594 17° North 429 494 36,000 500 Level Memphis Center
Thu 10:49:32 AM 35.8561 -86.4153 17° North 435 501 37,000 500 Climbing Memphis Center
Thu 10:50:32 AM 35.9736 -86.3739 16° North 435 501 37,000  Level Memphis Center
Thu 10:51:32 AM 36.0908 -86.3269 18° North 435 501 37,000  Level Memphis Center
Thu 10:52:32 AM 36.2106 -86.2825 17° North 435 501 37,000  Level Memphis Center
Thu 10:53:32 AM 36.3278 -86.2406 16° North 430 495 37,000  Level Memphis Center
Thu 10:54:32 AM 36.4475 -86.1983 16° North 430 495 37,000  Level Memphis Center
Thu 10:55:32 AM 36.5669 -86.1561 16° North 437 503 37,000  Level Memphis Center
Thu 10:57:21 AM 36.7850 -86.0761 16° North 445 512 37,000  Level Indianapolis Center
Thu 10:58:23 AM 36.9106 -86.0731 North 447 514 37,000  Level Indianapolis Center
Thu 10:59:25 AM 37.0344 -86.0714 North 444 511 37,000  Level Indianapolis Center
Thu 11:00:27 AM 37.1597 -86.0711 360° North 445 512 37,000  Level Indianapolis Center
Thu 11:01:29 AM 37.3064 -86.0683 North 447 514 37,000  Level Indianapolis Center
Thu 11:02:31 AM 37.4347 -86.0678 360° North 454 522 37,000  Level Indianapolis Center
Thu 11:03:33 AM 37.5544 -86.0697 359° North 459 528 37,000  Level Indianapolis Center
Thu 11:04:35 AM 37.6847 -86.0706 360° North 466 536 37,000  Level Indianapolis Center
Thu 11:05:37 AM 37.8156 -86.0692 360° North 463 533 37,000  Level Indianapolis Center
Thu 11:06:39 AM 37.9711 -86.0689 360° North 469 540 37,000  Level Indianapolis Center
Thu 11:07:41 AM 38.1014 -86.0683 360° North 468 539 37,000 -145 Level Indianapolis Center
Thu 11:08:43 AM 38.2300 -86.0678 360° North 463 533 36,700 -634 Descending Indianapolis Center
Thu 11:09:44 AM 38.3608 -86.0678 360° North 467 537 35,700 -829 Descending Indianapolis Center
Thu 11:10:46 AM 38.4917 -86.0672 360° North 470 541 35,000 -339 Descending Indianapolis Center
Thu 11:11:48 AM 38.6233 -86.0658 360° North 473 544 35,000 -581 Level Indianapolis Center
Thu 11:12:50 AM 38.7817 -86.0656 360° North 473 544 33,800 -1,258 Descending Indianapolis Center
Thu 11:13:52 AM 38.9067 -86.0644 360° North 472 543 32,400 -1,355 Descending Indianapolis Center
Thu 11:14:54 AM 39.0403 -86.0642 360° North 479 551 31,000 -1,403 Descending Indianapolis Center
Thu 11:15:56 AM 39.1714 -86.0633 360° North 475 547 29,500 -1,452 Descending Indianapolis Center
Thu 11:16:58 AM 39.3000 -86.0639 360° North 466 536 28,000 -823 Descending Indianapolis Center
Thu 11:18:00 AM 39.4492 -86.0628 360° North 453 521 27,800 -585 Descending Indianapolis Center
Thu 11:19:01 AM 39.5756 -86.0617 360° North 458 527 26,800 -976 Descending Indianapolis Center
Thu 11:20:03 AM 39.7019 -86.0608 360° North 462 532 25,800 -968 Descending Indianapolis Center
Thu 11:21:05 AM 39.8281 -86.0606 360° North 464 534 24,800 -871 Descending Indianapolis Center
Thu 11:22:07 AM 39.9792 -86.0606 360° North 460 529 24,000 -387 Descending Indianapolis Center
Thu 11:23:09 AM 40.1039 -86.0775 354° North 458 527 24,000  Level Indianapolis Center
Thu 11:24:10 AM 40.2250 -86.1228 344° North 458 527 24,000 -488 Level Indianapolis Center
Thu 11:25:12 AM 40.3442 -86.1661 345° North 451 519 23,000 -484 Descending Indianapolis Center
Thu 11:26:14 AM 40.4594 -86.2094 344° North 439 505 23,000 -726 Level Indianapolis Center
Thu 11:27:16 AM 40.5986 -86.2603 345° North 436 502 21,500 -2,177 Descending Chicago Center
Thu 11:28:18 AM 40.7158 -86.3058 344° North 432 497 18,500 -2,710 Descending Chicago Center
Thu 11:29:20 AM 40.8297 -86.3508 343° North 429 494 15,900 -2,516 Descending Chicago Center
Thu 11:30:22 AM 40.9392 -86.3928 344° North 415 478 13,300 -2,371 Descending Chicago Center
Thu 11:31:24 AM 41.0431 -86.4372 342° North 399 459 11,000 -1,268 Descending Chicago Center
Thu 11:32:25 AM 41.1147 -86.5369 314° West 377 434 10,700 -537 Descending Chicago Center
Thu 11:33:27 AM 41.1828 -86.6442 310° West 380 437 9,900 -387 Descending Chicago Center
Thu 11:34:29 AM 41.2628 -86.7681 311° West 377 434 9,900  Level Chicago Center
Thu 11:35:31 AM 41.3306 -86.8728 311° West 375 432 9,900 -242 Level Chicago Center
Thu 11:36:33 AM 41.3886 -86.9608 311° West 325 374 9,400 -1,016 Descending Chicago Center
Thu 11:37:35 AM 41.4422 -87.0456 310° West 302 348 7,800 -1,554 Descending Chicago Center
Thu 11:38:25 AM 41.5000 -87.1333 311° West 298 343 6,500 -1,314 Descending Chicago TRACON
Thu 11:39:20 AM 41.5167 -87.2167 285° West 283 326 5,500 -1,240 Descending Chicago TRACON
Thu 11:40:26 AM 41.5333 -87.3167 283° West 273 314 4,000 -750 Descending Chicago TRACON
Thu 11:41:20 AM 41.5333 -87.4000 270° West 269 310 4,000  Level Chicago TRACON
Thu 11:41:43 AM 41.5442 -87.4417 289° West 271 312 4,000  Level Chicago Center
Thu 11:42:45 AM 41.5553 -87.5389 279° West 269 310 4,000  Level Chicago Center
Thu 11:43:47 AM 41.5656 -87.6367 278° West 269 310 4,000 -195 Level Chicago Center
Thu 11:44:48 AM 41.6044 -87.7133 304° West 258 297 3,600 -488 Descending Chicago Center
Thu 11:45:50 AM 41.6497 -87.7908 308° West 236 272 3,000 -581 Descending Chicago Center
Thu 11:46:52 AM 41.6922 -87.8264 328° Northwest 202 232 2,400 -484 Descending Chicago Center
Thu 11:47:54 AM 41.7297 -87.8225 North 172 198 2,000 -484 Descending Chicago Center
Thu 11:48:56 AM 41.7547 -87.7908 43° Northeast 141 162 1,400 -484 Descending Chicago Center
Thu 11:49:58 AM 41.7825 -87.7553 44° Northeast 132 152 1,000 -387 Descending Chicago Center
Thu 11:51:00 AM 41.7833 -87.7500 37° Northeast  Level FlightAware Approximate

Login

Don't have an account? Register now (free) for customized features, flight alerts, and more!